Latest Coastal Weather Observations for Cape Naturaliste

IDW60701

Issued at 10:15 am WST Monday 22 September 2014 (issued every 10 minutes, with the page automatically refreshed every 10 minutes)

About coastal observations | Map of coastal stations | Coastal observations for WA | Marine services | Other Formats
Station Details ID: 009519 Name: CAPE NATURALISTE Lat: -33.54 Lon: 115.02 Height: 109.0 m
Data from the previous 72 hours. | See also: Recent months at Cape Naturaliste
Date/Time
WST
Temp

°C
Wind Pressure Rain
since 9am
mm
Weather Cloud Vis
km
Sea
Height
m
Swell
Dir
 
Speed
knots
Gust
knots
hPa Trend Height
m
Period
s
Dir
22/10:00am 12.5 S 10 14 1022.9 - 0.0 - - - - - - -
22/09:30am 12.6 S 11 15 1022.9 - 0.0 - - - - - - -
22/09:00am 13.2 S 13 20 1022.5 - 17.8 - - - - - - -
22/08:30am 11.8 SSE 8 12 1022.1 - 17.8 - - - - - - -
22/08:00am 12.3 SSE 13 18 1021.7 - 17.8 - - - - - - -
22/07:30am 12.0 S 13 19 1020.8 - 17.8 - - - - - - -
22/07:00am 10.1 S 15 19 1020.4 - 17.8 - - - - - - -
22/06:30am 9.6 S 12 16 1019.8 - 17.8 - - - - - - -
22/06:00am 9.6 S 12 16 1019.2 - 17.8 - - - - - - -
22/05:30am 9.4 S 13 16 1018.9 - 17.8 - - - - - - -
22/05:00am 9.0 S 12 16 1018.4 - 17.8 - - - - - - -
22/04:30am 9.4 S 15 19 1017.9 - 17.8 - - - - - - -
22/04:00am 9.6 S 16 21 1017.5 - 17.8 - - - - - - -
22/03:30am 10.1 S 17 25 1017.4 - 17.8 - - - - - - -
22/03:17am 10.7 S 18 28 1017.0 - 17.8 - - - - - - -
22/03:00am 11.5 S 21 26 1016.8 - 17.8 - - - - - - -
22/02:39am 12.2 SSW 19 29 1016.5 - 17.8 - - - - - - -
22/02:30am 12.1 SSW 19 25 1016.5 - 17.8 - - - - - - -
22/02:00am 11.9 SSW 20 28 1016.3 - 17.8 - - - - - - -
22/01:42am 11.9 SSW 18 28 1016.3 - 17.8 - - - - - - -
22/01:30am 11.8 SSW 17 26 1016.2 - 17.8 - - - - - - -
22/01:06am 10.8 SSW 24 34 1016.3 - 17.8 - - - - - - -
22/01:00am 11.1 SSW 27 34 1016.1 - 17.8 - - - - - - -
22/12:46am 10.9 S 16 30 1016.1 - 17.8 - - - - - - -
22/12:30am 10.5 S 15 22 1016.2 - 17.8 - - - - - - -
22/12:00am 9.5 S 15 21 1016.0 - 17.8 Recent precip. - - - - - -
 
Date/Time
WST
Temp

°C
Wind Pressure Rain
since 9am
mm
Weather Cloud Vis
km
Sea
Height
m
Swell
Dir
 
Speed
knots
Gust
knots
hPa Trend Height
m
Period
s
Dir
21/11:30pm 9.9 S 21 29 1015.7 - 17.8 - - - - - - -
21/11:01pm 10.8 S 19 29 1015.4 - 17.4 - - - - - - -
21/11:00pm 10.9 S 20 29 1015.4 - 17.4 - - - - - - -
21/10:47pm 11.9 S 18 28 1015.4 - 17.4 - - - - - - -
21/10:30pm 11.5 S 19 24 1015.2 - 17.4 - - - - - - -
21/10:00pm 11.2 S 18 24 1015.0 - 17.4 - - - - - - -
21/09:30pm 11.8 S 18 28 1015.1 - 17.4 - - - - - - -
21/09:12pm 12.0 S 20 30 1014.5 - 17.4 - - - - - - -
21/09:00pm 11.5 S 20 29 1014.3 - 17.4 Recent precip. - - - - - -
21/08:30pm 12.0 S 23 35 1014.2 - 17.4 - - - - - - -
21/08:04pm 12.5 SSW 24 34 1013.4 - 17.2 - - - - - - -
21/08:00pm 12.7 SSW 24 32 1013.3 - 17.2 - - - - - - -
21/07:30pm 12.0 S 21 31 1012.7 - 17.2 - - - - - - -
21/07:06pm 12.0 S 22 33 1012.1 - 17.2 - - - - - - -
21/07:00pm 12.1 S 19 27 1011.9 - 17.2 - - - - - - -
21/06:30pm 12.7 SSW 24 34 1010.9 - 17.2 - - - - - - -
21/06:02pm 12.7 S 24 35 1010.4 - 17.2 - - - - - - -
21/06:00pm 12.7 S 25 34 1010.4 - 17.2 - - - - - - -
21/05:30pm 12.3 S 22 32 1010.0 - 17.2 - - - - - - -
21/05:02pm 12.1 S 23 33 1008.8 - 17.2 - - - - - - -
21/05:00pm 12.1 S 24 33 1008.7 - 17.2 - - - - - - -
21/04:30pm 12.0 SSW 27 37 1007.8 - 17.2 - - - - - - -
21/04:00pm 12.2 SSW 28 41 1007.5 - 17.2 - - - - - - -
21/03:37pm 12.0 SSW 27 37 1007.2 - 17.0 - - - - - - -
21/03:30pm 12.6 SSW 28 37 1006.7 - 17.0 - - - - - - -
21/03:00pm 12.1 SSW 23 33 1006.7 - 17.0 Recent precip. - - - - - -
21/02:30pm 12.3 SSW 23 35 1006.2 - 16.8 - - - - - - -
21/02:00pm 13.0 SSW 21 32 1006.0 - 16.6 - - - - - - -
21/01:30pm 12.5 S 19 25 1005.2 - 16.2 - - - - - - -
21/01:08pm 12.4 S 19 29 1005.3 - 16.2 - - - - - - -
21/01:00pm 12.0 S 21 29 1005.6 - 16.2 - - - - - - -
21/12:54pm 12.7 S 18 21 1005.4 - 16.0 - - - - - - -
21/12:30pm 13.0 S 5 7 1006.0 - 14.4 - - - - - - -
21/12:00pm 13.4 SSW 3 9 1005.2 - 6.8 Rain - - - - - -
21/11:30am 12.9 SSW 9 11 1004.4 - 6.4 - - - - - - -
21/11:00am 12.8 SW 10 16 1004.5 - 5.6 - - - - - - -
21/10:30am 12.4 SW 13 17 1004.4 - 4.0 - - - - - - -
21/10:00am 12.9 SW 16 21 1003.5 - 2.4 - - - - - - -
21/09:38am 13.3 SW 17 27 1003.8 - 1.0 - - - - - - -
21/09:30am 13.7 SW 20 27 1003.6 - 0.4 - - - - - - -
21/09:00am 13.7 SW 23 31 1002.6 - 14.0 - - - - - - -
21/08:39am 13.1 WSW 29 39 1002.9 - 14.0 - - - - - - -
21/08:30am 13.1 SW 31 39 1002.1 - 14.0 - - - - - - -
21/08:03am 12.8 SW 30 40 1001.7 - 14.0 - - - - - - -
21/08:00am 13.2 SW 29 38 1001.6 - 14.0 - - - - - - -
21/07:40am 13.6 WSW 28 38 1001.0 - 13.8 - - - - - - -
21/07:30am 13.9 WSW 26 35 1001.3 - 11.8 - - - - - - -
21/07:25am 14.9 WSW 23 34 1001.0 - 6.4 - - - - - - -
21/07:23am 16.2 NW 21 31 1000.6 - 4.8 - - - - - - -
21/07:16am 18.9 N 26 36 999.9 - 3.2 - - - - - - -
21/07:00am 18.7 N 29 38 1000.0 - 3.2 - - - - - - -
21/06:34am 18.4 N 31 41 1000.2 - 3.2 - - - - - - -
21/06:30am 18.5 N 30 38 1000.3 - 3.2 - - - - - - -
21/06:08am 18.9 N 28 38 1000.8 - 3.0 - - - - - - -
21/06:00am 18.9 N 28 37 1001.1 - 3.0 - - - - - - -
21/05:30am 18.6 N 28 36 1001.4 - 3.0 - - - - - - -
21/05:16am 18.6 N 27 37 1001.1 - 3.0 - - - - - - -
21/05:00am 18.4 N 28 37 1001.2 - 3.0 - - - - - - -
21/04:30am 18.3 N 28 37 1001.5 - 3.0 - - - - - - -
21/04:00am 18.0 N 28 38 1001.8 - 3.0 - - - - - - -
21/03:40am 17.4 N 27 37 1002.2 - 3.0 - - - - - - -
21/03:30am 17.3 N 29 37 1002.1 - 3.0 - - - - - - -
21/03:13am 16.5 N 24 39 1002.7 - 3.0 - - - - - - -
21/03:00am 15.9 NNW 22 31 1003.1 - 3.0 Rain - - - - - -
21/02:31am 19.0 N 24 34 1003.5 - 0.0 - - - - - - -
21/02:30am 19.0 N 24 32 1003.6 - 0.0 - - - - - - -
21/02:00am 18.8 N 23 29 1004.6 - 0.0 - - - - - - -
21/01:30am 18.8 N 22 31 1005.4 - 0.0 - - - - - - -
21/01:00am 18.7 N 23 30 1006.1 - 0.0 - - - - - - -
21/12:30am 18.9 N 23 30 1006.6 - 0.0 - - - - - - -
21/12:00am 18.8 N 20 25 1007.0 - 0.0 - - - - - - -
 
Date/Time
WST
Temp

°C
Wind Pressure Rain
since 9am
mm
Weather Cloud Vis
km
Sea
Height
m
Swell
Dir
 
Speed
knots
Gust
knots
hPa Trend Height
m
Period
s
Dir
20/11:47pm 18.7 N 19 30 1007.0 - 0.0 - - - - - - -
20/11:30pm 18.5 N 18 23 1007.2 - 0.0 - - - - - - -
20/11:00pm 18.5 N 19 26 1007.9 - 0.0 - - - - - - -
20/10:30pm 18.9 NNW 22 28 1008.6 - 0.0 - - - - - - -
20/10:00pm 18.9 NNW 21 29 1009.1 - 0.0 - - - - - - -
20/09:45pm 18.9 N 20 30 1009.0 - 0.0 - - - - - - -
20/09:30pm 18.8 N 18 26 1009.4 - 0.0 - - - - - - -
20/09:00pm 19.0 N 15 22 1009.9 - 0.0 - - - - - - -
20/08:30pm 18.7 NNW 14 20 1010.1 - 0.0 - - - - - - -
20/08:00pm 18.8 NNW 11 15 1009.9 - 0.0 - - - - - - -
20/07:30pm 18.6 NNW 10 12 1009.9 - 0.0 - - - - - - -
20/07:00pm 18.8 NW 13 16 1009.1 - 0.0 - - - - - - -
20/06:30pm 18.8 WNW 12 15 1008.6 - 0.0 - - - - - - -
20/06:00pm 19.6 WNW 15 21 1008.5 - 0.0 - - - - - - -
20/05:30pm 20.5 WNW 15 20 1008.2 - 0.0 - - - - - - -
20/05:00pm 21.6 NW 14 19 1008.2 - 0.0 - - - - - - -
20/04:30pm 22.2 N 13 16 1008.2 - 0.0 - - - - - - -
20/04:00pm 22.7 N 14 17 1008.1 - 0.0 - - - - - - -
20/03:30pm 22.9 N 15 19 1008.1 - 0.0 - - - - - - -
20/03:00pm 23.1 N 16 22 1008.6 - 0.0 - - - - - - -
20/02:30pm 23.7 NNW 15 20 1009.2 - 0.0 - - - - - - -
20/02:00pm 23.8 N 15 19 1009.1 - 0.0 - - - - - - -
20/01:30pm 23.9 NNE 18 21 1009.2 - 0.0 - - - - - - -
20/01:00pm 23.7 NNE 19 22 1009.5 - 0.0 - - - - - - -
20/12:30pm 23.7 NE 18 23 1009.9 - 0.0 - - - - - - -
20/12:00pm 23.2 NE 19 24 1010.4 - 0.0 - - - - - - -
20/11:30am 22.9 NE 20 25 1010.9 - 0.0 - - - - - - -
20/11:00am 22.2 NE 21 27 1011.3 - 0.0 - - - - - - -
20/10:30am 21.3 NE 22 28 1011.6 - 0.0 - - - - - - -
20/10:00am 20.7 NE 24 31 1012.0 - 0.0 - - - - - - -
20/09:30am 20.3 NE 24 30 1012.4 - 0.0 - - - - - - -
20/09:00am 19.7 NE 21 28 1012.9 - 0.2 - - - - - - -
20/08:30am 19.1 NE 21 27 1013.3 - 0.2 - - - - - - -
20/08:00am 18.4 NE 21 27 1013.6 - 0.2 - - - - - - -
20/07:30am 17.8 NE 21 28 1013.7 - 0.2 - - - - - - -
20/07:00am 17.1 NE 20 27 1013.9 - 0.0 - - - - - - -
20/06:30am 16.6 ENE 20 25 1014.0 - 0.0 - - - - - - -
20/06:00am 16.5 ENE 19 24 1014.4 - 0.0 - - - - - - -
20/05:30am 16.4 ENE 19 24 1014.5 - 0.0 - - - - - - -
20/05:00am 15.9 ENE 18 22 1014.8 - 0.0 - - - - - - -
20/04:30am 15.3 E 15 21 1015.0 - 0.0 - - - - - - -
20/04:00am 14.6 E 16 19 1015.4 - 0.0 - - - - - - -
20/03:30am 14.1 E 14 16 1015.8 - 0.0 - - - - - - -
20/03:00am 13.9 ESE 13 15 1016.2 - 0.0 - - - - - - -
20/02:30am 14.1 ESE 13 16 1016.7 - 0.0 - - - - - - -
20/02:00am 14.1 ESE 13 16 1017.3 - 0.0 - - - - - - -
20/01:30am 14.0 ESE 12 15 1017.7 - 0.0 - - - - - - -
20/01:00am 13.9 ESE 12 14 1017.8 - 0.0 - - - - - - -
20/12:30am 13.9 ESE 12 14 1018.1 - 0.0 - - - - - - -
20/12:00am 14.0 ESE 12 13 1018.4 - 0.0 - - - - - - -
 
Date/Time
WST
Temp

°C
Wind Pressure Rain
since 9am
mm
Weather Cloud Vis
km
Sea
Height
m
Swell
Dir
 
Speed
knots
Gust
knots
hPa Trend Height
m
Period
s
Dir
19/11:30pm 13.8 ESE 10 11 1019.0 - 0.0 - - - - - - -
19/11:00pm 13.8 SE 9 11 1019.4 - 0.0 - - - - - - -
19/10:30pm 13.9 SE 9 10 1019.7 - 0.0 - - - - - - -
19/10:00pm 14.4 ESE 7 8 1020.1 - 0.0 - - - - - - -
19/09:30pm 14.8 ESE 6 7 1020.3 - 0.0 - - - - - - -
19/09:00pm 15.8 SSW 6 7 1020.4 - 0.0 - - - - - - -
19/08:30pm 15.8 SW 8 9 1020.6 - 0.0 - - - - - - -
19/08:00pm 15.7 WSW 8 9 1020.4 - 0.0 - - - - - - -
19/07:30pm 15.9 W 5 7 1020.6 - 0.0 - - - - - - -
19/07:00pm 16.2 W 5 6 1020.7 - 0.0 - - - - - - -
19/06:30pm 16.6 W 4 5 1020.8 - 0.0 - - - - - - -
19/06:00pm 17.8 W 5 6 1020.6 - 0.0 - - - - - - -
19/05:30pm 19.2 W 3 5 1020.4 - 0.0 - - - - - - -
19/05:00pm 19.4 N 4 6 1020.4 - 0.0 - - - - - - -
19/04:30pm 19.8 N 5 7 1020.3 - 0.0 - - - - - - -
19/04:00pm 19.9 NNE 5 7 1020.5 - 0.0 - - - - - - -
19/03:30pm 20.2 N 6 7 1020.5 - 0.0 - - - - - - -
19/03:00pm 20.8 NNE 7 8 1020.3 - 0.0 - - - - - - -
19/02:30pm 20.6 NNE 7 9 1020.5 - 0.0 - - - - - - -
19/02:00pm 20.6 NNE 8 11 1020.7 - 0.0 - - - - - - -
19/01:30pm 20.8 NNE 7 9 1020.8 - 0.0 - - - - - - -
19/01:00pm 20.7 NNE 7 10 1021.2 - 0.0 - - - - - - -
19/12:30pm 20.5 NNE 9 11 1021.5 - 0.0 - - - - - - -
19/12:00pm 20.5 NE 9 10 1021.7 - 0.0 - - - - - - -
19/11:30am 20.0 NE 9 10 1021.9 - 0.0 - - - - - - -
19/11:00am 19.6 ENE 9 11 1022.0 - 0.0 - - - - - - -
19/10:30am 19.2 ENE 8 11 1022.1 - 0.0 - - - - - - -

Other Formats:

Comma delimited format used in spreadsheet applications
http://www.bom.gov.au/fwo/IDW60701/IDW60701.94600.axf

JavaScript Object Notation format (JSON) in row-major order
http://www.bom.gov.au/fwo/IDW60701/IDW60701.94600.json